createdAt,value
2018-03-21T00:01:51.813Z,103122.67
2018-03-21T00:04:20.910Z,103121.78
2018-03-21T00:06:49.988Z,103123.41
2018-03-21T00:09:18.310Z,103117.47
2018-03-21T00:11:47.980Z,103122.55
2018-03-21T00:14:16.324Z,103123.90
2018-03-21T00:16:44.668Z,103123.28
2018-03-21T00:19:13.808Z,103125.20
2018-03-21T00:21:42.112Z,103132.67
2018-03-21T00:24:10.413Z,103127.16
2018-03-21T00:26:39.532Z,103132.98
2018-03-21T00:29:08.775Z,103129.93
2018-03-21T00:31:37.081Z,103133.00
2018-03-21T00:34:05.408Z,103137.34
2018-03-21T00:36:33.723Z,103140.36
2018-03-21T00:39:02.090Z,103145.08
2018-03-21T00:41:30.442Z,103144.10
2018-03-21T00:43:58.759Z,103142.02
2018-03-21T00:46:27.114Z,103151.84
2018-03-21T00:48:56.460Z,103143.77
2018-03-21T00:51:24.792Z,103149.38
2018-03-21T00:53:53.144Z,103144.01
2018-03-21T00:56:21.508Z,103158.56
2018-03-21T00:58:49.821Z,103151.89
2018-03-21T01:01:18.319Z,103152.78
2018-03-21T01:03:46.632Z,103150.61
2018-03-21T01:06:15.704Z,103151.64
2018-03-21T01:08:44.037Z,103150.84
2018-03-21T01:11:12.365Z,103157.86
2018-03-21T01:13:40.723Z,103154.80
2018-03-21T01:16:09.051Z,103149.56
2018-03-21T01:18:38.134Z,103152.07
2018-03-21T01:21:07.121Z,103151.94
2018-03-21T01:23:35.426Z,103151.64
2018-03-21T01:26:04.504Z,103145.95
2018-03-21T01:28:32.848Z,103146.51
2018-03-21T01:31:01.154Z,103143.91
2018-03-21T01:33:29.484Z,103141.45
2018-03-21T01:35:58.576Z,103137.88
2018-03-21T01:38:27.650Z,103140.98
2018-03-21T01:40:55.991Z,103138.52
2018-03-21T01:43:24.307Z,103139.13
2018-03-21T01:45:52.613Z,103140.02
2018-03-21T01:48:21.697Z,103141.33
2018-03-21T01:50:50.010Z,103139.41
2018-03-21T01:53:18.317Z,103132.14
2018-03-21T01:55:46.661Z,103136.65
2018-03-21T01:58:15.800Z,103135.58
2018-03-21T02:00:44.103Z,103134.22
2018-03-21T02:03:12.413Z,103139.06
2018-03-21T02:05:40.717Z,103135.91
2018-03-21T02:08:09.845Z,103138.22
2018-03-21T02:10:38.158Z,103134.39
2018-03-21T02:13:06.478Z,103131.24
2018-03-21T02:15:35.560Z,103133.23
2018-03-21T02:18:04.676Z,103138.46
2018-03-21T02:20:33.759Z,103137.23
2018-03-21T02:23:02.066Z,103132.09
2018-03-21T02:25:31.145Z,103126.91
2018-03-21T02:28:00.225Z,103129.71
2018-03-21T02:30:28.536Z,103124.48
2018-03-21T02:32:57.626Z,103123.84
2018-03-21T02:35:26.030Z,103130.22
2018-03-21T02:37:55.117Z,103127.20
2018-03-21T02:40:24.192Z,103129.88
2018-03-21T02:42:52.534Z,103128.91
2018-03-21T02:45:20.845Z,103132.48
2018-03-21T02:47:49.154Z,103130.49
2018-03-21T02:50:17.474Z,103129.45
2018-03-21T02:52:45.774Z,103122.94
2018-03-21T02:55:14.097Z,103126.69
2018-03-21T02:57:42.406Z,103123.42
2018-03-21T03:00:10.744Z,103128.60
2018-03-21T03:02:39.816Z,103131.11
2018-03-21T03:05:08.126Z,103129.66
2018-03-21T03:07:36.449Z,103122.47
2018-03-21T03:10:05.542Z,103121.16
2018-03-21T03:12:34.612Z,103128.13
2018-03-21T03:15:02.932Z,103128.42
2018-03-21T03:17:32.023Z,103127.52
2018-03-21T03:20:01.223Z,103130.38
2018-03-21T03:22:30.293Z,103121.70
2018-03-21T03:24:58.623Z,103118.35
2018-03-21T03:27:26.937Z,103116.61
2018-03-21T03:29:55.237Z,103115.72
2018-03-21T03:32:23.527Z,103109.73
2018-03-21T03:34:51.915Z,103114.11
2018-03-21T03:37:20.216Z,103109.95
2018-03-21T03:39:49.337Z,103104.08
2018-03-21T03:42:17.637Z,103108.30
2018-03-21T03:44:45.945Z,103110.93
2018-03-21T03:47:14.253Z,103109.48
2018-03-21T03:49:43.327Z,103110.93
2018-03-21T03:52:11.649Z,103110.11
2018-03-21T03:54:39.975Z,103108.12
2018-03-21T03:57:08.311Z,103107.45
2018-03-21T03:59:37.385Z,103112.79
2018-03-21T04:02:05.697Z,103113.14
2018-03-21T04:04:34.007Z,103102.18
2018-03-21T04:07:02.374Z,103098.28
2018-03-21T04:09:30.721Z,103104.19
2018-03-21T04:11:59.032Z,103099.91
2018-03-21T04:14:27.480Z,103105.17
2018-03-21T04:16:55.805Z,103107.34
2018-03-21T04:19:24.847Z,103105.69
2018-03-21T04:21:53.169Z,103105.27
2018-03-21T04:24:22.255Z,103102.96
2018-03-21T04:26:51.337Z,103101.22
2018-03-21T04:29:20.442Z,103097.40
2018-03-21T04:31:48.744Z,103101.05
2018-03-21T04:34:17.818Z,103099.19
2018-03-21T04:36:46.119Z,103098.59
2018-03-21T04:39:15.236Z,103097.11
2018-03-21T04:41:43.575Z,103095.92
2018-03-21T04:44:11.891Z,103096.94
2018-03-21T04:46:40.959Z,103096.94
2018-03-21T04:49:09.817Z,103101.40
2018-03-21T04:51:38.107Z,103100.77
2018-03-21T04:54:06.426Z,103095.16
2018-03-21T04:56:34.719Z,103095.28
2018-03-21T04:59:03.802Z,103096.52
2018-03-21T05:01:32.097Z,103098.98
2018-03-21T05:04:00.420Z,103101.19
2018-03-21T05:06:28.733Z,103103.86
2018-03-21T05:08:57.068Z,103105.56
2018-03-21T05:11:25.679Z,103099.91
2018-03-21T05:13:54.069Z,103097.83
2018-03-21T05:16:22.380Z,103104.37
2018-03-21T05:18:50.717Z,103102.72
2018-03-21T05:21:19.050Z,103098.85
2018-03-21T05:23:47.451Z,103096.26
2018-03-21T05:26:15.775Z,103098.22
2018-03-21T05:28:44.095Z,103105.69
2018-03-21T05:31:12.407Z,103104.76
2018-03-21T05:33:41.484Z,103103.31
2018-03-21T05:36:09.793Z,103113.47
2018-03-21T05:38:38.891Z,103116.27
2018-03-21T05:41:07.971Z,103114.91
2018-03-21T05:43:36.285Z,103119.70
2018-03-21T05:46:04.608Z,103110.02
2018-03-21T05:48:32.924Z,103115.84
2018-03-21T05:51:01.263Z,103108.50
2018-03-21T05:53:29.585Z,103113.84
2018-03-21T05:55:58.666Z,103107.85
2018-03-21T05:58:27.015Z,103113.50
2018-03-21T06:00:55.369Z,103115.25
2018-03-21T06:03:23.695Z,103109.59
2018-03-21T06:05:52.025Z,103111.09
2018-03-21T06:08:20.358Z,103114.95
2018-03-21T06:10:48.676Z,103110.48
2018-03-21T06:13:17.771Z,103109.14
2018-03-21T06:15:46.136Z,103112.98
2018-03-21T06:18:14.436Z,103111.70
2018-03-21T06:20:42.737Z,103111.52
2018-03-21T06:23:11.823Z,103115.11
2018-03-21T06:25:40.135Z,103114.02
2018-03-21T06:28:08.453Z,103115.59
2018-03-21T06:30:37.579Z,103113.68
2018-03-21T06:33:07.500Z,103116.91
2018-03-21T06:35:35.803Z,103115.04
2018-03-21T06:38:04.884Z,103123.78
2018-03-21T06:40:33.180Z,103117.03
2018-03-21T06:43:02.256Z,103124.48
2018-03-21T06:45:30.561Z,103129.59
2018-03-21T06:47:59.617Z,103123.17
2018-03-21T06:50:27.975Z,103127.13
2018-03-21T06:52:56.363Z,103122.12
2018-03-21T06:55:24.679Z,103127.11
2018-03-21T06:57:53.003Z,103120.63
2018-03-21T07:00:21.512Z,103118.75
2018-03-21T07:02:49.829Z,103119.34
2018-03-21T07:05:18.152Z,103127.01
2018-03-21T07:07:47.224Z,103132.08
2018-03-21T07:10:15.529Z,103134.62
2018-03-21T07:12:44.705Z,103136.36
2018-03-21T07:15:30.736Z,103138.30
2018-03-21T07:17:59.041Z,103144.32
2018-03-21T07:20:27.337Z,103136.50
2018-03-21T07:22:55.655Z,103141.01
2018-03-21T07:25:24.710Z,103138.91
2018-03-21T07:27:53.001Z,103139.38
2018-03-21T07:30:21.335Z,103134.87
2018-03-21T07:32:49.655Z,103131.37
2018-03-21T07:35:17.979Z,103128.72
2018-03-21T07:37:46.267Z,103129.41
2018-03-21T07:40:15.343Z,103129.09
2018-03-21T07:42:43.664Z,103128.27
2018-03-21T07:45:12.829Z,103128.24
2018-03-21T07:47:41.134Z,103128.95
2018-03-21T07:50:09.463Z,103128.55
2018-03-21T07:52:37.773Z,103126.34
2018-03-21T07:55:06.082Z,103125.70
2018-03-21T07:57:35.147Z,103133.98
2018-03-21T08:00:03.438Z,103136.64
2018-03-21T08:02:31.756Z,103134.94
2018-03-21T08:05:00.057Z,103134.64
2018-03-21T08:07:28.355Z,103133.92
2018-03-21T08:09:56.694Z,103135.91
2018-03-21T08:12:25.771Z,103129.17
2018-03-21T08:14:54.405Z,103128.28
2018-03-21T08:17:22.720Z,103131.94
2018-03-21T08:19:51.052Z,103132.89
2018-03-21T08:22:20.131Z,103125.07
2018-03-21T08:24:49.204Z,103126.12
2018-03-21T08:27:17.555Z,103124.99
2018-03-21T08:29:45.917Z,103126.39
2018-03-21T08:32:14.987Z,103131.30
2018-03-21T08:34:43.291Z,103125.83
2018-03-21T08:37:12.416Z,103119.16
2018-03-21T08:39:40.728Z,103121.45
2018-03-21T08:42:09.069Z,103120.77
2018-03-21T08:44:37.363Z,103121.17
2018-03-21T08:47:05.693Z,103124.61
2018-03-21T08:49:34.001Z,103125.09
2018-03-21T08:52:03.067Z,103127.27
2018-03-21T08:54:31.371Z,103128.42
2018-03-21T08:57:00.476Z,103126.00
2018-03-21T08:59:29.560Z,103122.91
2018-03-21T09:01:57.907Z,103114.36
2018-03-21T09:04:26.206Z,103119.20
2018-03-21T09:06:54.537Z,103114.11
2018-03-21T09:09:23.605Z,103117.59
2018-03-21T09:11:51.931Z,103116.53
2018-03-21T09:14:20.237Z,103114.33
2018-03-21T09:16:48.597Z,103117.33
2018-03-21T09:19:16.932Z,103111.13
2018-03-21T09:21:45.242Z,103113.94
2018-03-21T09:24:13.575Z,103120.34
2018-03-21T09:26:41.907Z,103116.61
2018-03-21T09:29:11.020Z,103120.53
2018-03-21T09:31:39.341Z,103114.88
2018-03-21T09:34:07.692Z,103109.98
2018-03-21T09:36:36.022Z,103107.31
2018-03-21T09:39:04.382Z,103104.27
2018-03-21T09:41:32.662Z,103106.97
2018-03-21T09:44:01.013Z,103099.45
2018-03-21T09:46:29.422Z,103103.48
2018-03-21T09:48:57.687Z,103102.41
2018-03-21T09:51:25.983Z,103102.05
2018-03-21T09:53:54.294Z,103099.66
2018-03-21T09:56:22.620Z,103102.25
2018-03-21T09:58:50.930Z,103098.83
2018-03-21T10:01:19.279Z,103097.37
2018-03-21T10:03:48.357Z,103100.19
2018-03-21T10:06:16.719Z,103102.98
2018-03-21T10:08:45.022Z,103108.23
2018-03-21T10:11:14.158Z,103103.88
2018-03-21T10:13:42.459Z,103098.98
2018-03-21T10:16:10.824Z,103095.27
2018-03-21T10:18:39.235Z,103086.69
2018-03-21T10:21:07.535Z,103080.55
2018-03-21T10:23:35.853Z,103085.39
2018-03-21T10:26:04.934Z,103085.79
2018-03-21T10:28:33.269Z,103090.16
2018-03-21T10:31:01.597Z,103083.13
2018-03-21T10:33:29.949Z,103082.16
2018-03-21T10:35:59.015Z,103083.43
2018-03-21T10:38:27.329Z,103080.48
2018-03-21T10:40:55.644Z,103086.85
2018-03-21T10:43:24.757Z,103075.83
2018-03-21T10:45:53.816Z,103071.84
2018-03-21T10:48:22.129Z,103070.22
2018-03-21T10:50:50.431Z,103066.80
2018-03-21T10:53:18.763Z,103066.34
2018-03-21T10:55:47.108Z,103070.34
2018-03-21T10:58:15.404Z,103062.77
2018-03-21T11:00:43.716Z,103072.70
2018-03-21T11:03:12.075Z,103074.91
2018-03-21T11:05:40.399Z,103071.73
2018-03-21T11:08:09.474Z,103069.06
2018-03-21T11:10:37.764Z,103068.45
2018-03-21T11:13:06.080Z,103068.06
2018-03-21T11:15:35.183Z,103073.90
2018-03-21T11:18:04.266Z,103067.89
2018-03-21T11:20:33.368Z,103059.13
2018-03-21T11:23:02.438Z,103061.78
2018-03-21T11:25:30.793Z,103063.84
2018-03-21T11:27:59.123Z,103065.12
2018-03-21T11:30:28.204Z,103067.34
2018-03-21T11:32:56.518Z,103053.56
2018-03-21T11:35:25.582Z,103043.59
2018-03-21T11:37:53.898Z,103032.34
2018-03-21T11:40:23.075Z,103039.27
2018-03-21T11:42:51.401Z,103038.11
2018-03-21T11:45:20.308Z,103041.78
2018-03-21T11:47:48.643Z,103040.42
2018-03-21T11:50:16.984Z,103040.13
2018-03-21T11:52:46.159Z,103035.72
2018-03-21T11:55:14.602Z,103025.39
2018-03-21T11:57:42.935Z,103016.20
2018-03-21T12:00:11.288Z,103010.66
2018-03-21T12:02:40.380Z,103012.25
2018-03-21T12:05:08.681Z,103009.06
2018-03-21T12:07:37.796Z,103008.40
2018-03-21T12:10:06.094Z,103010.56
2018-03-21T12:12:34.425Z,103013.09
2018-03-21T12:15:02.753Z,103010.70
2018-03-21T12:17:31.072Z,103020.02
2018-03-21T12:19:59.392Z,103018.15
2018-03-21T12:22:27.724Z,103014.21
2018-03-21T12:24:56.020Z,103012.80
2018-03-21T12:27:24.366Z,103020.58
2018-03-21T12:29:52.756Z,103019.59
2018-03-21T12:32:21.231Z,103008.19
2018-03-21T12:34:49.550Z,103011.52
2018-03-21T12:37:17.872Z,103011.56
2018-03-21T12:39:47.924Z,103014.33
2018-03-21T12:42:16.249Z,103015.16
2018-03-21T12:44:44.603Z,103019.06
2018-03-21T12:47:12.924Z,103016.89
2018-03-21T12:49:42.078Z,103018.62
2018-03-21T12:52:10.401Z,103029.69
2018-03-21T12:54:38.724Z,103038.30
2018-03-21T12:57:07.058Z,103032.19
2018-03-21T12:59:35.396Z,103032.45
2018-03-21T13:02:03.962Z,103027.78
2018-03-21T13:04:33.073Z,103020.59
2018-03-21T13:07:01.433Z,103019.60
2018-03-21T13:09:30.507Z,103014.97
2018-03-21T13:11:58.828Z,103010.84
2018-03-21T13:14:27.922Z,102999.19
2018-03-21T13:16:57.484Z,102997.46
2018-03-21T13:19:25.820Z,102998.46
2018-03-21T13:21:54.136Z,103014.69
2018-03-21T13:24:22.500Z,102998.50
2018-03-21T13:26:50.856Z,102985.05
2018-03-21T13:29:19.957Z,102989.33
2018-03-21T13:31:49.037Z,102987.45
2018-03-21T13:34:17.358Z,102977.66
2018-03-21T13:36:45.717Z,102979.65
2018-03-21T13:39:14.032Z,102971.85
2018-03-21T13:41:42.367Z,102970.11
2018-03-21T13:44:11.492Z,102969.96
2018-03-21T13:46:39.867Z,102970.02
2018-03-21T13:49:08.939Z,102958.75
2018-03-21T13:51:37.288Z,102965.23
2018-03-21T13:54:05.630Z,102953.69
2018-03-21T13:56:33.963Z,102955.95
2018-03-21T13:59:02.440Z,102945.38
2018-03-21T14:01:30.736Z,102947.80
2018-03-21T14:03:59.036Z,102937.71
2018-03-21T14:06:28.194Z,102945.21
2018-03-21T14:08:56.497Z,102938.95
2018-03-21T14:11:24.794Z,102933.98
2018-03-21T14:13:53.106Z,102935.44
2018-03-21T14:16:22.450Z,102941.31
2018-03-21T14:18:50.738Z,102930.50
2018-03-21T14:21:19.079Z,102926.13
2018-03-21T14:23:48.156Z,102932.75
2018-03-21T14:26:16.476Z,102928.37
2018-03-21T14:28:45.595Z,102921.68
2018-03-21T14:31:13.911Z,102931.92
2018-03-21T14:33:42.568Z,102933.83
2018-03-21T14:36:11.812Z,102932.66
2018-03-21T14:38:40.214Z,102927.38
2018-03-21T14:41:08.528Z,102926.57
2018-03-21T14:43:36.855Z,102934.91
2018-03-21T14:46:05.196Z,102922.95
2018-03-21T14:48:33.512Z,102928.05
2018-03-21T14:51:01.842Z,102929.10
2018-03-21T14:53:30.916Z,102917.91
2018-03-21T14:55:59.312Z,102922.64
2018-03-21T14:58:28.425Z,102908.75
2018-03-21T15:00:57.504Z,102907.44
2018-03-21T15:03:25.830Z,102903.60
2018-03-21T15:05:54.224Z,102903.42
2018-03-21T15:08:22.536Z,102904.81
2018-03-21T15:10:50.879Z,102897.23
2018-03-21T15:13:19.231Z,102894.37
2018-03-21T15:15:48.377Z,102888.17
2018-03-21T15:18:16.712Z,102887.55
2018-03-21T15:20:45.846Z,102887.28
2018-03-21T15:23:14.252Z,102881.81
2018-03-21T15:25:42.586Z,102877.33
2018-03-21T15:28:10.925Z,102875.58
2018-03-21T15:30:39.322Z,102888.17
2018-03-21T15:33:07.643Z,102874.14
2018-03-21T15:35:35.967Z,102873.50
2018-03-21T15:38:05.010Z,102875.61
2018-03-21T15:40:34.217Z,102882.89
2018-03-21T15:43:02.541Z,102885.50
2018-03-21T15:45:30.867Z,102881.02
2018-03-21T15:47:59.992Z,102873.98
2018-03-21T15:50:28.304Z,102886.34
2018-03-21T15:52:57.093Z,102879.04
2018-03-21T15:55:25.418Z,102873.73
2018-03-21T15:57:53.925Z,102876.53
2018-03-21T16:00:22.257Z,102871.20
2018-03-21T16:02:50.577Z,102866.53
2018-03-21T16:05:19.716Z,102861.73
2018-03-21T16:07:48.107Z,102853.11
2018-03-21T16:10:16.454Z,102852.08
2018-03-21T16:12:45.568Z,102846.73
2018-03-21T16:15:13.874Z,102846.09
2018-03-21T16:17:42.192Z,102850.52
2018-03-21T16:20:10.530Z,102838.20
2018-03-21T16:22:38.851Z,102839.89
2018-03-21T16:25:07.178Z,102839.25
2018-03-21T16:27:35.827Z,102838.62
2018-03-21T16:30:04.154Z,102846.03
2018-03-21T16:32:32.471Z,102852.06
2018-03-21T16:35:01.540Z,102845.05
2018-03-21T16:37:29.856Z,102841.38
2018-03-21T16:39:59.423Z,102848.00
2018-03-21T16:42:27.758Z,102846.09
2018-03-21T16:44:56.070Z,102842.86
2018-03-21T16:47:25.157Z,102838.41
2018-03-21T16:49:54.406Z,102835.45
2018-03-21T16:52:22.712Z,102826.63
2018-03-21T16:54:51.041Z,102836.44
2018-03-21T16:57:20.173Z,102836.23
2018-03-21T16:59:49.394Z,102842.59
2018-03-21T17:02:17.737Z,102834.34
2018-03-21T17:04:46.814Z,102829.56
2018-03-21T17:07:15.913Z,102835.08
2018-03-21T17:09:44.221Z,102828.56
2018-03-21T17:12:12.637Z,102825.10
2018-03-21T17:14:40.952Z,102827.63
2018-03-21T17:17:09.283Z,102823.48
2018-03-21T17:19:37.691Z,102831.25
2018-03-21T17:22:06.012Z,102831.27
2018-03-21T17:24:35.142Z,102837.50
2018-03-21T17:27:03.484Z,102831.59
2018-03-21T17:29:31.881Z,102831.91
2018-03-21T17:32:00.227Z,102830.03
2018-03-21T17:34:28.592Z,102827.70
2018-03-21T17:36:56.986Z,102827.62
2018-03-21T17:39:25.342Z,102826.84
2018-03-21T17:41:53.725Z,102823.10
2018-03-21T17:44:22.071Z,102826.77
2018-03-21T17:46:50.363Z,102821.39
2018-03-21T17:49:19.457Z,102826.33
2018-03-21T17:51:48.679Z,102813.03
2018-03-21T17:54:17.029Z,102816.08
2018-03-21T17:56:45.356Z,102812.69
2018-03-21T17:59:13.699Z,102805.63
2018-03-21T18:01:42.027Z,102806.22
2018-03-21T18:04:10.406Z,102798.97
2018-03-21T18:06:38.750Z,102797.38
2018-03-21T18:09:07.082Z,102799.42
2018-03-21T18:11:35.465Z,102795.08
2018-03-21T18:14:03.798Z,102800.08
2018-03-21T18:16:32.129Z,102788.19
2018-03-21T18:19:00.465Z,102788.09
2018-03-21T18:21:28.830Z,102792.72
2018-03-21T18:23:57.181Z,102796.83
2018-03-21T18:26:25.517Z,102792.13
2018-03-21T18:28:53.866Z,102793.05
2018-03-21T18:31:22.183Z,102788.34
2018-03-21T18:33:50.488Z,102783.70
2018-03-21T18:36:19.531Z,102793.45
2018-03-21T18:38:47.887Z,102785.98
2018-03-21T18:41:16.211Z,102784.62
2018-03-21T18:43:44.516Z,102781.00
2018-03-21T18:46:13.585Z,102777.52
2018-03-21T18:48:41.917Z,102775.22
2018-03-21T18:51:11.046Z,102772.26
2018-03-21T18:53:39.357Z,102771.85
2018-03-21T18:56:07.682Z,102773.02
2018-03-21T18:58:36.000Z,102770.74
2018-03-21T19:01:04.397Z,102764.66
2018-03-21T19:03:32.725Z,102753.70
2018-03-21T19:06:01.819Z,102755.91
2018-03-21T19:08:30.913Z,102757.19
2018-03-21T19:10:59.982Z,102753.59
2018-03-21T19:13:28.291Z,102759.31
2018-03-21T19:15:57.427Z,102753.40
2018-03-21T19:18:25.748Z,102745.20
2018-03-21T19:20:54.402Z,102744.86
2018-03-21T19:23:22.767Z,102740.39
2018-03-21T19:25:51.096Z,102736.65
2018-03-21T19:28:19.445Z,102730.03
2018-03-21T19:30:47.782Z,102726.84
2018-03-21T19:33:16.102Z,102713.19
2018-03-21T19:35:44.471Z,102708.52
2018-03-21T19:38:13.633Z,102712.48
2018-03-21T19:40:41.937Z,102715.80
2018-03-21T19:43:11.029Z,102708.02
2018-03-21T19:45:39.355Z,102715.19
2018-03-21T19:48:07.685Z,102700.39
2018-03-21T19:50:35.979Z,102700.52
2018-03-21T19:53:04.301Z,102691.37
2018-03-21T19:55:32.621Z,102700.28
2018-03-21T19:58:00.962Z,102690.48
2018-03-21T20:00:29.312Z,102685.61
2018-03-21T20:02:57.694Z,102681.16
2018-03-21T20:05:26.784Z,102673.52
2018-03-21T20:07:55.158Z,102674.75
2018-03-21T20:10:23.518Z,102662.06
2018-03-21T20:12:51.856Z,102660.29
2018-03-21T20:15:20.979Z,102653.36
2018-03-21T20:17:49.307Z,102646.86
2018-03-21T20:20:17.650Z,102644.70
2018-03-21T20:22:45.959Z,102636.41
2018-03-21T20:25:14.293Z,102640.37
2018-03-21T20:27:42.703Z,102633.58
2018-03-21T20:30:11.017Z,102636.59
2018-03-21T20:32:39.974Z,102633.27
2018-03-21T20:35:08.360Z,102622.39
2018-03-21T20:37:37.168Z,102625.64
2018-03-21T20:40:05.486Z,102616.01
2018-03-21T20:42:33.784Z,102614.50
2018-03-21T20:45:02.887Z,102606.78
2018-03-21T20:47:31.942Z,102597.38
2018-03-21T20:50:00.248Z,102596.63
2018-03-21T20:52:28.587Z,102595.89
2018-03-21T20:54:56.939Z,102586.66
2018-03-21T20:57:26.013Z,102581.80
2018-03-21T20:59:54.325Z,102578.41
2018-03-21T21:02:23.445Z,102571.88
2018-03-21T21:04:51.753Z,102574.12
2018-03-21T21:07:20.115Z,102560.84
2018-03-21T21:09:48.479Z,102565.53
2018-03-21T21:12:16.864Z,102557.88
2018-03-21T21:14:45.975Z,102561.14
2018-03-21T21:17:14.281Z,102550.22
2018-03-21T21:19:42.606Z,102543.20
2018-03-21T21:22:11.746Z,102541.27
2018-03-21T21:24:40.853Z,102531.27
2018-03-21T21:27:09.163Z,102529.91
2018-03-21T21:29:37.477Z,102522.53
2018-03-21T21:32:05.817Z,102517.36
2018-03-21T21:34:34.137Z,102516.25
2018-03-21T21:37:02.446Z,102507.68
2018-03-21T21:39:30.779Z,102511.05
2018-03-21T21:41:59.120Z,102510.14
2018-03-21T21:44:27.437Z,102504.14
2018-03-21T21:46:55.777Z,102493.66
2018-03-21T21:49:24.071Z,102497.93
2018-03-21T21:51:52.381Z,102481.39
2018-03-21T21:54:20.686Z,102482.88
2018-03-21T21:56:49.763Z,102474.22
2018-03-21T21:59:18.122Z,102468.13
2018-03-21T22:01:46.424Z,102469.75
2018-03-21T22:04:14.753Z,102454.66
2018-03-21T22:06:43.846Z,102455.98
2018-03-21T22:09:12.945Z,102457.59
2018-03-21T22:11:42.043Z,102448.66
2018-03-21T22:14:10.403Z,102454.59
2018-03-21T22:16:38.774Z,102444.46
2018-03-21T22:19:07.086Z,102439.84
2018-03-21T22:21:36.192Z,102431.74
2018-03-21T22:24:05.260Z,102415.06
2018-03-21T22:26:33.578Z,102401.23
2018-03-21T22:29:02.690Z,102407.31
2018-03-21T22:31:31.025Z,102398.52
2018-03-21T22:33:59.367Z,102398.45
2018-03-21T22:36:27.679Z,102390.27
2018-03-21T22:38:56.001Z,102392.00
2018-03-21T22:41:25.099Z,102375.73
2018-03-21T22:43:54.226Z,102371.67
2018-03-21T22:46:22.534Z,102370.15
2018-03-21T22:48:51.611Z,102364.20
2018-03-21T22:51:19.919Z,102361.48
2018-03-21T22:53:48.234Z,102356.75
2018-03-21T22:56:17.316Z,102355.40
2018-03-21T22:58:45.642Z,102353.60
2018-03-21T23:01:13.950Z,102362.66
2018-03-21T23:03:42.273Z,102363.44
2018-03-21T23:06:10.617Z,102369.59
2018-03-21T23:08:38.970Z,102369.93
2018-03-21T23:11:08.032Z,102375.60
2018-03-21T23:13:37.615Z,102367.43
2018-03-21T23:16:05.942Z,102363.66
2018-03-21T23:18:35.116Z,102362.82
2018-03-21T23:21:03.433Z,102361.35
2018-03-21T23:23:32.546Z,102358.27
2018-03-21T23:26:00.923Z,102362.69
2018-03-21T23:28:29.993Z,102343.26
2018-03-21T23:30:59.207Z,102348.84
2018-03-21T23:33:28.324Z,102342.41
2018-03-21T23:35:56.665Z,102332.09
2018-03-21T23:38:24.999Z,102327.41
2018-03-21T23:40:53.317Z,102326.41
2018-03-21T23:43:21.622Z,102328.59
2018-03-21T23:45:50.054Z,102319.09
2018-03-21T23:48:18.346Z,102318.95
2018-03-21T23:50:46.661Z,102310.59
2018-03-21T23:53:15.061Z,102314.41
2018-03-21T23:55:43.399Z,102314.97
2018-03-21T23:58:11.747Z,102303.09
